createdAt,value
2017-02-09T00:00:10.751Z,21.85
2017-02-09T00:00:30.463Z,21.78
2017-02-09T00:00:50.281Z,21.81
2017-02-09T00:01:10.005Z,21.84
2017-02-09T00:01:29.741Z,21.78
2017-02-09T00:01:49.465Z,21.81
2017-02-09T00:02:09.169Z,21.81
2017-02-09T00:02:28.301Z,21.89
2017-02-09T00:02:47.434Z,21.84
2017-02-09T00:03:07.184Z,21.81
2017-02-09T00:03:26.913Z,21.84
2017-02-09T00:03:46.033Z,21.79
2017-02-09T00:04:05.739Z,21.78
2017-02-09T00:04:25.554Z,21.78
2017-02-09T00:04:45.274Z,21.79
2017-02-09T00:05:05.185Z,21.84
2017-02-09T00:05:24.310Z,21.75
2017-02-09T00:05:44.170Z,21.75
2017-02-09T00:06:03.871Z,21.82
2017-02-09T00:06:23.600Z,21.86
2017-02-09T00:06:43.337Z,21.78
2017-02-09T00:07:03.039Z,21.82
2017-02-09T00:07:22.751Z,21.76
2017-02-09T00:07:41.871Z,21.78
2017-02-09T00:08:00.983Z,21.82
2017-02-09T00:08:20.682Z,21.81
2017-02-09T00:08:39.791Z,21.79
2017-02-09T00:08:59.492Z,21.81
2017-02-09T00:09:19.183Z,21.82
2017-02-09T00:09:38.890Z,21.82
2017-02-09T00:09:58.030Z,21.79
2017-02-09T00:10:17.781Z,21.78
2017-02-09T00:10:37.558Z,21.85
2017-02-09T00:10:56.684Z,21.97
2017-02-09T00:11:16.373Z,21.98
2017-02-09T00:11:36.109Z,21.92
2017-02-09T00:11:55.852Z,22.02
2017-02-09T00:12:14.980Z,21.95
2017-02-09T00:12:34.692Z,21.92
2017-02-09T00:12:54.406Z,22.01
2017-02-09T00:13:14.517Z,22
2017-02-09T00:13:34.462Z,22
2017-02-09T00:13:54.179Z,22.01
2017-02-09T00:14:13.861Z,22.08
2017-02-09T00:14:33.608Z,22.02
2017-02-09T00:14:53.340Z,22.07
2017-02-09T00:15:13.010Z,22.1
2017-02-09T00:15:32.715Z,22.1
2017-02-09T00:15:52.447Z,22.05
2017-02-09T00:16:12.157Z,22.07
2017-02-09T00:16:31.861Z,22.02
2017-02-09T00:16:51.562Z,22.04
2017-02-09T00:17:10.661Z,22.08
2017-02-09T00:17:30.395Z,22.05
2017-02-09T00:17:50.169Z,22.13
2017-02-09T00:18:09.904Z,22.13
2017-02-09T00:18:29.616Z,22.16
2017-02-09T00:18:49.359Z,22.15
2017-02-09T00:19:09.060Z,22.15
2017-02-09T00:19:28.796Z,22.13
2017-02-09T00:19:48.513Z,22
2017-02-09T00:20:08.202Z,22.08
2017-02-09T00:20:27.309Z,22.02
2017-02-09T00:20:47.052Z,21.98
2017-02-09T00:21:06.793Z,21.92
2017-02-09T00:21:26.516Z,22.05
2017-02-09T00:21:46.250Z,22.02
2017-02-09T00:22:05.969Z,22.08
2017-02-09T00:22:25.696Z,22.16
2017-02-09T00:22:44.803Z,22.04
2017-02-09T00:23:04.514Z,22.15
2017-02-09T00:23:24.230Z,22.16
2017-02-09T00:23:43.935Z,22.13
2017-02-09T00:24:03.683Z,22.12
2017-02-09T00:24:23.420Z,22.02
2017-02-09T00:24:43.169Z,22.04
2017-02-09T00:25:02.848Z,22.05
2017-02-09T00:25:22.566Z,22.07
2017-02-09T00:25:42.360Z,22.1
2017-02-09T00:26:02.081Z,22.16
2017-02-09T00:26:21.801Z,22.12
2017-02-09T00:26:41.534Z,22.12
2017-02-09T00:27:01.215Z,22.13
2017-02-09T00:27:20.942Z,22.16
2017-02-09T00:27:40.665Z,22.13
2017-02-09T00:28:00.396Z,22.13
2017-02-09T00:28:20.115Z,22.12
2017-02-09T00:28:39.858Z,22.2
2017-02-09T00:28:58.939Z,22.2
2017-02-09T00:29:18.633Z,22.13
2017-02-09T00:29:38.315Z,22.16
2017-02-09T00:29:57.427Z,22.17
2017-02-09T00:30:17.158Z,22.13
2017-02-09T00:30:36.880Z,22.15
2017-02-09T00:30:56.582Z,22.2
2017-02-09T00:31:16.325Z,22.2
2017-02-09T00:31:36.049Z,22.16
2017-02-09T00:31:55.818Z,22.2
2017-02-09T00:32:15.568Z,22.26
2017-02-09T00:32:35.293Z,22.2
2017-02-09T00:32:54.387Z,22.17
2017-02-09T00:33:13.532Z,22.19
2017-02-09T00:33:33.242Z,22.22
2017-02-09T00:33:52.953Z,22.17
2017-02-09T00:34:12.673Z,22.22
2017-02-09T00:34:32.408Z,22.13
2017-02-09T00:34:52.153Z,22.15
2017-02-09T00:35:11.820Z,22.15
2017-02-09T00:35:31.548Z,22.15
2017-02-09T00:35:51.266Z,22.13
2017-02-09T00:36:10.973Z,22.17
2017-02-09T00:36:30.652Z,22.15
2017-02-09T00:36:50.371Z,22.16
2017-02-09T00:37:10.129Z,22.19
2017-02-09T00:37:29.840Z,22.19
2017-02-09T00:37:49.557Z,22.15
2017-02-09T00:38:09.261Z,22.2
2017-02-09T00:38:28.969Z,22.24
2017-02-09T00:38:48.704Z,22.26
2017-02-09T00:39:08.406Z,22.2
2017-02-09T00:39:28.112Z,22.16
2017-02-09T00:39:47.791Z,22.26
2017-02-09T00:40:07.507Z,22.22
2017-02-09T00:40:26.651Z,22.15
2017-02-09T00:40:46.337Z,22.13
2017-02-09T00:41:06.024Z,22.16
2017-02-09T00:41:25.845Z,22.2
2017-02-09T00:41:45.577Z,22.24
2017-02-09T00:42:05.315Z,22.28
2017-02-09T00:42:25.010Z,22.24
2017-02-09T00:42:44.763Z,22.26
2017-02-09T00:43:04.468Z,22.16
2017-02-09T00:43:24.153Z,22.2
2017-02-09T00:43:43.898Z,22.15
2017-02-09T00:44:03.842Z,22.17
2017-02-09T00:44:23.573Z,22.15
2017-02-09T00:44:43.281Z,22.15
2017-02-09T00:45:02.980Z,22.05
2017-02-09T00:45:22.663Z,22.05
2017-02-09T00:45:42.383Z,22.02
2017-02-09T00:46:02.107Z,22.17
2017-02-09T00:46:21.815Z,22.13
2017-02-09T00:46:41.483Z,22.19
2017-02-09T00:47:01.192Z,22.22
2017-02-09T00:47:20.904Z,22.16
2017-02-09T00:47:40.608Z,22.16
2017-02-09T00:48:00.308Z,22.08
2017-02-09T00:48:19.440Z,22.16
2017-02-09T00:48:39.179Z,22.13
2017-02-09T00:48:58.274Z,22.12
2017-02-09T00:49:17.968Z,22.13
2017-02-09T00:49:37.662Z,22.15
2017-02-09T00:49:57.369Z,22.13
2017-02-09T00:50:16.486Z,22.08
2017-02-09T00:50:35.613Z,22.16
2017-02-09T00:50:55.334Z,22.17
2017-02-09T00:51:15.042Z,22.19
2017-02-09T00:51:34.732Z,22.15
2017-02-09T00:51:54.460Z,22.02
2017-02-09T00:52:14.177Z,22.07
2017-02-09T00:52:33.887Z,22.07
2017-02-09T00:52:53.610Z,22.02
2017-02-09T00:53:12.733Z,22.07
2017-02-09T00:53:32.430Z,22.05
2017-02-09T00:53:51.588Z,22.1
2017-02-09T00:54:11.312Z,22.01
2017-02-09T00:54:31.036Z,22.01
2017-02-09T00:54:50.720Z,22.05
2017-02-09T00:55:09.193Z,22.08
2017-02-09T00:55:28.911Z,22.02
2017-02-09T00:55:48.038Z,22.13
2017-02-09T00:56:07.739Z,22.2
2017-02-09T00:56:26.865Z,22.16
2017-02-09T00:56:46.599Z,22.04
2017-02-09T00:57:06.308Z,22.12
2017-02-09T00:57:26.010Z,22.01
2017-02-09T00:57:45.736Z,22.08
2017-02-09T00:58:05.450Z,22.05
2017-02-09T00:58:25.120Z,22.12
2017-02-09T00:58:44.802Z,22.07
2017-02-09T00:59:04.516Z,22.15
2017-02-09T00:59:24.252Z,22.08
2017-02-09T00:59:43.964Z,22.05
2017-02-09T01:00:03.710Z,22.12
2017-02-09T01:00:23.430Z,22.15
2017-02-09T01:00:43.199Z,22.02
2017-02-09T01:01:02.887Z,22.1
2017-02-09T01:01:22.601Z,22.12
2017-02-09T01:01:42.342Z,22.13
2017-02-09T01:02:02.080Z,22.16
2017-02-09T01:02:21.739Z,22.02
2017-02-09T01:02:41.492Z,22.15
2017-02-09T01:03:00.614Z,22.08
2017-02-09T01:03:20.311Z,22.15
2017-02-09T01:03:39.990Z,22.1
2017-02-09T01:03:59.709Z,22.19
2017-02-09T01:04:19.423Z,22.2
2017-02-09T01:04:39.130Z,22.19
2017-02-09T01:04:58.836Z,22.16
2017-02-09T01:05:18.575Z,22.23
2017-02-09T01:05:38.298Z,22.26
2017-02-09T01:05:58.030Z,22.26
2017-02-09T01:06:17.743Z,22.17
2017-02-09T01:06:37.489Z,22.16
2017-02-09T01:06:57.189Z,22.19
2017-02-09T01:07:16.305Z,22.22
2017-02-09T01:07:36.028Z,22.22
2017-02-09T01:07:55.771Z,22.28
2017-02-09T01:08:15.478Z,22.22
2017-02-09T01:08:35.207Z,22.32
2017-02-09T01:08:54.911Z,22.28
2017-02-09T01:09:14.623Z,22.28
2017-02-09T01:09:34.312Z,22.3
2017-02-09T01:09:54.028Z,22.19
2017-02-09T01:10:13.169Z,22.17
2017-02-09T01:10:32.904Z,22.23
2017-02-09T01:10:52.604Z,22.2
2017-02-09T01:11:12.301Z,22.16
2017-02-09T01:11:31.990Z,22.17
2017-02-09T01:11:51.681Z,22.17
2017-02-09T01:12:11.381Z,22.19
2017-02-09T01:12:31.091Z,22.17
2017-02-09T01:12:50.843Z,22.19
2017-02-09T01:13:10.568Z,22.2
2017-02-09T01:13:30.265Z,22.19
2017-02-09T01:13:49.969Z,22.17
2017-02-09T01:14:09.065Z,22.32
2017-02-09T01:14:28.798Z,22.24
2017-02-09T01:14:48.538Z,22.31
2017-02-09T01:15:08.294Z,22.2
2017-02-09T01:15:28.297Z,22.3
2017-02-09T01:15:48.709Z,22.26
2017-02-09T01:16:08.472Z,22.28
2017-02-09T01:16:27.619Z,22.3
2017-02-09T01:16:48.046Z,22.34
2017-02-09T01:17:08.461Z,22.26
2017-02-09T01:17:28.814Z,22.17
2017-02-09T01:17:49.230Z,22.17
2017-02-09T01:18:09.657Z,22.16
2017-02-09T01:18:30.045Z,22.13
2017-02-09T01:18:50.438Z,22.16
2017-02-09T01:19:10.845Z,22.19
2017-02-09T01:19:30.600Z,22.15
2017-02-09T01:19:50.992Z,22.15
2017-02-09T01:20:10.738Z,22.16
2017-02-09T01:20:31.218Z,22.16
2017-02-09T01:20:51.647Z,22.15
2017-02-09T01:21:12.016Z,22.16
2017-02-09T01:21:32.406Z,22.17
2017-02-09T01:21:52.146Z,22.17
2017-02-09T01:22:12.512Z,22.19
2017-02-09T01:22:32.248Z,22.16
2017-02-09T01:22:52.689Z,22.19
2017-02-09T01:23:13.096Z,22.16
2017-02-09T01:23:33.470Z,22.17
2017-02-09T01:23:53.872Z,22.19
2017-02-09T01:24:14.264Z,22.19
2017-02-09T01:24:34.658Z,22.19
2017-02-09T01:24:55.062Z,22.16
2017-02-09T01:25:15.455Z,22.1
2017-02-09T01:25:35.877Z,22.19
2017-02-09T01:25:56.260Z,22.12
2017-02-09T01:26:16.650Z,22.16
2017-02-09T01:26:37.011Z,22.17
2017-02-09T01:26:57.390Z,22.15
2017-02-09T01:27:17.771Z,22.15
2017-02-09T01:27:38.200Z,22.05
2017-02-09T01:27:58.613Z,22.05
2017-02-09T01:28:19.076Z,22.08
2017-02-09T01:28:39.503Z,22.15
2017-02-09T01:28:59.910Z,22.01
2017-02-09T01:29:20.296Z,22.02
2017-02-09T01:29:40.706Z,21.92
2017-02-09T01:30:01.112Z,21.95
2017-02-09T01:30:20.907Z,21.92
2017-02-09T01:30:41.332Z,21.91
2017-02-09T01:31:01.092Z,21.86
2017-02-09T01:31:21.523Z,21.95
2017-02-09T01:31:41.923Z,21.92
2017-02-09T01:32:02.303Z,21.95
2017-02-09T01:32:22.737Z,21.94
2017-02-09T01:32:43.136Z,22
2017-02-09T01:33:03.538Z,21.97
2017-02-09T01:33:23.939Z,22.08
2017-02-09T01:33:43.674Z,21.97
2017-02-09T01:34:04.041Z,21.97
2017-02-09T01:34:24.429Z,21.95
2017-02-09T01:34:44.797Z,21.95
2017-02-09T01:35:05.221Z,21.95
2017-02-09T01:35:25.599Z,21.98
2017-02-09T01:35:45.993Z,21.95
2017-02-09T01:36:06.380Z,21.92
2017-02-09T01:36:26.792Z,21.98
2017-02-09T01:36:47.179Z,21.94
2017-02-09T01:37:21.316Z,21.92
2017-02-09T01:37:41.715Z,21.86
2017-02-09T01:38:02.124Z,21.98
2017-02-09T01:38:22.535Z,22.05
2017-02-09T01:38:42.934Z,22.07
2017-02-09T01:39:03.333Z,22.08
2017-02-09T01:39:23.732Z,22.04
2017-02-09T01:39:44.156Z,22.04
2017-02-09T01:40:04.515Z,22.04
2017-02-09T01:40:24.926Z,22.07
2017-02-09T01:40:45.327Z,22.04
2017-02-09T01:41:05.705Z,21.98
2017-02-09T01:41:26.097Z,22.04
2017-02-09T01:41:46.497Z,22.05
2017-02-09T01:42:06.264Z,22
2017-02-09T01:42:26.650Z,22.01
2017-02-09T01:42:47.085Z,22.04
2017-02-09T01:43:07.501Z,22.05
2017-02-09T01:43:27.912Z,21.92
2017-02-09T01:43:48.342Z,22.01
2017-02-09T01:44:08.154Z,21.89
2017-02-09T01:44:28.561Z,21.95
2017-02-09T01:44:48.978Z,21.95
2017-02-09T01:45:09.599Z,21.94
2017-02-09T01:45:29.952Z,21.82
2017-02-09T01:45:49.665Z,21.91
2017-02-09T01:46:10.072Z,21.84
2017-02-09T01:46:30.438Z,21.91
2017-02-09T01:46:50.853Z,22.01
2017-02-09T01:47:11.238Z,21.97
2017-02-09T01:47:31.652Z,21.92
2017-02-09T01:47:52.055Z,21.92
2017-02-09T01:48:12.494Z,22.02
2017-02-09T01:48:32.914Z,22.1
2017-02-09T01:48:53.291Z,22.05
2017-02-09T01:49:13.689Z,22.05
2017-02-09T01:49:34.133Z,22.05
2017-02-09T01:49:54.539Z,22.04
2017-02-09T01:50:14.896Z,22.01
2017-02-09T01:50:35.321Z,22.05
2017-02-09T01:50:55.744Z,22
2017-02-09T01:51:16.152Z,21.97
2017-02-09T01:51:36.565Z,21.89
2017-02-09T01:51:56.976Z,21.85
2017-02-09T01:52:17.365Z,21.85
2017-02-09T01:52:37.760Z,21.84
2017-02-09T01:52:58.184Z,21.98
2017-02-09T01:53:18.554Z,21.92
2017-02-09T01:53:38.325Z,21.94
2017-02-09T01:53:58.712Z,21.97
2017-02-09T01:54:19.162Z,21.89
2017-02-09T01:54:39.578Z,21.91
2017-02-09T01:54:59.352Z,21.95
2017-02-09T01:55:19.755Z,21.95
2017-02-09T01:55:40.466Z,21.91
2017-02-09T01:56:00.890Z,21.94
2017-02-09T01:56:21.270Z,21.98
2017-02-09T01:56:41.684Z,22.01
2017-02-09T01:57:02.090Z,22.02
2017-02-09T01:57:22.492Z,22.01
2017-02-09T01:57:42.927Z,22.04
2017-02-09T01:58:03.319Z,22.04
2017-02-09T01:58:23.701Z,22.04
2017-02-09T01:58:44.113Z,21.89
2017-02-09T01:59:03.864Z,22
2017-02-09T01:59:24.236Z,21.97
2017-02-09T01:59:44.659Z,21.91
2017-02-09T02:00:05.246Z,21.97
2017-02-09T02:00:25.629Z,21.81
2017-02-09T02:00:47.129Z,21.85
2017-02-09T02:01:07.532Z,21.92
2017-02-09T02:01:27.918Z,21.86
2017-02-09T02:01:48.334Z,21.89
2017-02-09T02:02:08.767Z,21.92
2017-02-09T02:02:29.190Z,21.85
2017-02-09T02:02:49.613Z,21.86
2017-02-09T02:03:10.014Z,21.89
2017-02-09T02:03:30.395Z,21.89
2017-02-09T02:03:50.817Z,21.85
2017-02-09T02:04:11.193Z,21.82
2017-02-09T02:04:31.641Z,21.82
2017-02-09T02:04:52.094Z,21.78
2017-02-09T02:05:12.491Z,21.85
2017-02-09T02:05:32.892Z,21.91
2017-02-09T02:05:53.342Z,21.85
2017-02-09T02:06:13.122Z,21.86
2017-02-09T02:06:33.520Z,22
2017-02-09T02:06:53.933Z,22
2017-02-09T02:07:14.353Z,21.97
2017-02-09T02:07:34.746Z,21.91
2017-02-09T02:07:55.148Z,21.97
2017-02-09T02:08:15.545Z,21.92
2017-02-09T02:08:35.267Z,21.94
2017-02-09T02:08:55.665Z,22.08
2017-02-09T02:09:16.059Z,22.1
2017-02-09T02:09:36.481Z,22.05
2017-02-09T02:09:56.862Z,22.07
2017-02-09T02:10:16.586Z,22.07
2017-02-09T02:10:37.053Z,22.05
2017-02-09T02:10:57.417Z,22.12
2017-02-09T02:11:17.808Z,22.07
2017-02-09T02:11:38.228Z,22.05
2017-02-09T02:11:58.604Z,22.05
2017-02-09T02:12:18.996Z,22.13
2017-02-09T02:12:39.399Z,22.12
2017-02-09T02:12:59.815Z,22.16
2017-02-09T02:13:20.221Z,22.1
2017-02-09T02:13:40.639Z,22.12
2017-02-09T02:14:01.067Z,22.08
2017-02-09T02:14:20.840Z,22.13
2017-02-09T02:14:40.681Z,22.15
2017-02-09T02:15:01.098Z,22.2
2017-02-09T02:15:21.543Z,22.13
2017-02-09T02:15:41.976Z,22.05
2017-02-09T02:16:02.380Z,22.13
2017-02-09T02:16:22.823Z,22.12
2017-02-09T02:16:43.276Z,22.16
2017-02-09T02:17:03.750Z,22.13
2017-02-09T02:17:23.614Z,22.12
2017-02-09T02:17:43.345Z,22.07
2017-02-09T02:18:03.743Z,22
2017-02-09T02:18:24.159Z,22.07
2017-02-09T02:18:44.560Z,21.95
2017-02-09T02:19:04.934Z,22.01
2017-02-09T02:19:24.703Z,21.97
2017-02-09T02:19:45.076Z,21.91
2017-02-09T02:20:19.370Z,21.86
2017-02-09T02:20:39.759Z,21.85
2017-02-09T02:21:00.151Z,21.86
2017-02-09T02:21:19.918Z,21.86
2017-02-09T02:21:40.297Z,21.85
2017-02-09T02:22:00.699Z,21.89
2017-02-09T02:22:20.463Z,21.94
2017-02-09T02:22:40.874Z,21.91
2017-02-09T02:23:00.648Z,21.84
2017-02-09T02:23:20.454Z,21.86
2017-02-09T02:23:40.243Z,21.94
2017-02-09T02:24:00.679Z,22
2017-02-09T02:24:21.098Z,21.91
2017-02-09T02:24:41.534Z,21.91
2017-02-09T02:25:02.205Z,21.94
2017-02-09T02:25:22.893Z,22
2017-02-09T02:25:43.317Z,21.98
2017-02-09T02:26:03.701Z,21.95
2017-02-09T02:26:24.087Z,21.86
2017-02-09T02:26:44.472Z,21.89
2017-02-09T02:27:04.203Z,21.86
2017-02-09T02:27:24.813Z,21.85
2017-02-09T02:27:45.211Z,21.85
2017-02-09T02:28:05.626Z,21.81
2017-02-09T02:28:26.058Z,21.75
2017-02-09T02:28:45.845Z,21.76
2017-02-09T02:29:06.251Z,21.69
2017-02-09T02:29:26.678Z,21.63
2017-02-09T02:29:47.082Z,21.72
2017-02-09T02:30:07.555Z,21.75
2017-02-09T02:30:27.531Z,21.75
2017-02-09T02:30:47.402Z,21.78
2017-02-09T02:31:07.839Z,21.67
2017-02-09T02:31:28.294Z,21.74
2017-02-09T02:31:48.725Z,21.69
2017-02-09T02:32:09.115Z,21.6
2017-02-09T02:32:29.510Z,21.66
2017-02-09T02:32:49.253Z,21.67
2017-02-09T02:33:09.769Z,21.66
2017-02-09T02:33:29.588Z,21.7
2017-02-09T02:33:50.032Z,21.69
2017-02-09T02:34:10.497Z,21.61
2017-02-09T02:34:30.918Z,21.75
2017-02-09T02:34:51.386Z,21.69
2017-02-09T02:35:11.827Z,21.72
2017-02-09T02:35:32.287Z,21.63
2017-02-09T02:35:52.689Z,21.72
2017-02-09T02:36:13.066Z,21.69
2017-02-09T02:36:34.238Z,21.67
2017-02-09T02:36:54.656Z,21.66
2017-02-09T02:37:14.404Z,21.66
2017-02-09T02:37:34.793Z,21.66
2017-02-09T02:37:55.148Z,21.69
2017-02-09T02:38:15.579Z,21.69
2017-02-09T02:38:35.998Z,21.64
2017-02-09T02:38:55.815Z,21.66
2017-02-09T02:39:16.375Z,21.66
2017-02-09T02:39:36.916Z,21.6
2017-02-09T02:39:57.444Z,21.56
2017-02-09T02:40:31.579Z,21.6
2017-02-09T02:40:52.039Z,21.57
2017-02-09T02:41:12.547Z,21.63
2017-02-09T02:41:32.972Z,21.57
2017-02-09T02:41:52.716Z,21.59
2017-02-09T02:42:12.513Z,21.56
2017-02-09T02:42:32.948Z,21.54
2017-02-09T02:42:53.367Z,21.59
2017-02-09T02:43:13.757Z,21.53
2017-02-09T02:43:34.147Z,21.51
2017-02-09T02:43:54.564Z,21.54
2017-02-09T02:44:14.960Z,21.53
2017-02-09T02:44:35.346Z,21.54
2017-02-09T02:44:55.748Z,21.6
2017-02-09T02:45:16.159Z,21.54
2017-02-09T02:45:36.565Z,21.51
2017-02-09T02:45:56.983Z,21.51
2017-02-09T02:46:16.757Z,21.48
2017-02-09T02:46:37.183Z,21.51
2017-02-09T02:46:57.640Z,21.54
2017-02-09T02:47:18.061Z,21.45
2017-02-09T02:47:38.432Z,21.48
2017-02-09T02:47:58.868Z,21.48
2017-02-09T02:48:19.231Z,21.48
2017-02-09T02:48:39.610Z,21.39
2017-02-09T02:49:00.117Z,21.45
2017-02-09T02:49:20.496Z,21.54
2017-02-09T02:49:40.898Z,21.56
2017-02-09T02:50:01.270Z,21.42
2017-02-09T02:50:21.659Z,21.48
2017-02-09T02:50:42.106Z,21.46
2017-02-09T02:51:01.974Z,21.39
2017-02-09T02:51:22.421Z,21.41
2017-02-09T02:51:42.933Z,21.45
2017-02-09T02:52:03.399Z,21.49
2017-02-09T02:52:23.794Z,21.42
2017-02-09T02:52:44.246Z,21.45
2017-02-09T02:53:12.161Z,21.44
2017-02-09T02:53:34.170Z,21.45
2017-02-09T02:53:54.842Z,21.41
2017-02-09T02:54:15.338Z,21.48
2017-02-09T02:54:35.839Z,21.48
2017-02-09T02:54:55.597Z,21.41
2017-02-09T02:55:16.058Z,21.44
2017-02-09T02:55:36.680Z,21.38
2017-02-09T02:55:55.769Z,21.35
2017-02-09T02:56:16.136Z,21.3
2017-02-09T02:56:36.571Z,21.45
2017-02-09T02:56:56.987Z,21.33
2017-02-09T02:57:16.709Z,21.3
2017-02-09T02:57:37.076Z,21.23
2017-02-09T02:57:57.473Z,21.26
2017-02-09T02:58:17.884Z,21.36
2017-02-09T02:58:38.283Z,21.41
2017-02-09T02:58:58.714Z,21.3
2017-02-09T02:59:19.150Z,21.35
2017-02-09T02:59:39.555Z,21.35
2017-02-09T02:59:59.927Z,21.31
2017-02-09T03:00:20.535Z,21.21
2017-02-09T03:00:41.752Z,21.27
2017-02-09T03:01:02.168Z,21.29
2017-02-09T03:01:22.584Z,21.38
2017-02-09T03:01:43.021Z,21.27
2017-02-09T03:02:03.434Z,21.29
2017-02-09T03:02:23.222Z,21.23
2017-02-09T03:02:43.597Z,21.29
2017-02-09T03:03:03.983Z,21.41
2017-02-09T03:03:24.394Z,21.26
2017-02-09T03:03:44.775Z,21.41
2017-02-09T03:04:05.177Z,21.41
2017-02-09T03:04:25.565Z,21.38
2017-02-09T03:04:45.333Z,21.36
2017-02-09T03:05:05.911Z,21.36
2017-02-09T03:05:26.313Z,21.33
2017-02-09T03:05:46.702Z,21.3
2017-02-09T03:06:07.086Z,21.36
2017-02-09T03:06:26.878Z,21.38
2017-02-09T03:06:47.237Z,21.38
2017-02-09T03:07:07.670Z,21.41
2017-02-09T03:07:27.418Z,21.49
2017-02-09T03:07:47.851Z,21.45
2017-02-09T03:08:08.252Z,21.44
2017-02-09T03:08:28.630Z,21.46
2017-02-09T03:08:49.036Z,21.45
2017-02-09T03:09:09.413Z,21.44
2017-02-09T03:09:29.806Z,21.42
2017-02-09T03:09:50.241Z,21.38
2017-02-09T03:10:10.647Z,21.42
2017-02-09T03:10:31.156Z,21.42
2017-02-09T03:10:51.531Z,21.39
2017-02-09T03:11:11.917Z,21.46
2017-02-09T03:11:32.325Z,21.46
2017-02-09T03:11:52.723Z,21.45
2017-02-09T03:12:13.134Z,21.51
2017-02-09T03:12:33.549Z,21.49
2017-02-09T03:12:53.964Z,21.46
2017-02-09T03:13:14.368Z,21.49
2017-02-09T03:13:34.742Z,21.49
2017-02-09T03:13:55.152Z,21.41
2017-02-09T03:14:15.572Z,21.38
2017-02-09T03:14:35.989Z,21.33
2017-02-09T03:14:56.437Z,21.31
2017-02-09T03:15:16.853Z,21.33
2017-02-09T03:15:37.256Z,21.26
2017-02-09T03:15:57.663Z,21.36
2017-02-09T03:16:18.058Z,21.33
2017-02-09T03:16:38.450Z,21.41
2017-02-09T03:16:58.875Z,21.31
2017-02-09T03:17:19.307Z,21.39
2017-02-09T03:17:39.688Z,21.31
2017-02-09T03:18:00.067Z,21.38
2017-02-09T03:18:20.481Z,21.23
2017-02-09T03:18:40.882Z,21.33
2017-02-09T03:19:01.276Z,21.29
2017-02-09T03:19:21.631Z,21.35
2017-02-09T03:19:42.004Z,21.33
2017-02-09T03:20:02.411Z,21.35
2017-02-09T03:20:23.311Z,21.41
2017-02-09T03:20:43.709Z,21.31
2017-02-09T03:21:04.147Z,21.36
2017-02-09T03:21:24.573Z,21.3
2017-02-09T03:21:44.948Z,21.35
2017-02-09T03:22:05.342Z,21.29
2017-02-09T03:22:25.713Z,21.39
2017-02-09T03:22:46.076Z,21.26
2017-02-09T03:23:06.437Z,21.27
2017-02-09T03:23:26.809Z,21.24
2017-02-09T03:23:47.232Z,21.19
2017-02-09T03:24:07.638Z,21.38
2017-02-09T03:24:28.065Z,21.31
2017-02-09T03:24:48.457Z,21.35
2017-02-09T03:25:08.842Z,21.39
2017-02-09T03:25:29.248Z,21.23
2017-02-09T03:25:49.001Z,21.38
2017-02-09T03:26:09.415Z,21.3
2017-02-09T03:26:29.788Z,21.24
2017-02-09T03:26:50.171Z,21.38
2017-02-09T03:27:10.563Z,21.3
2017-02-09T03:27:30.351Z,21.36
2017-02-09T03:27:50.794Z,21.33
2017-02-09T03:28:11.193Z,21.39
2017-02-09T03:28:31.583Z,21.31
2017-02-09T03:28:51.966Z,21.31
2017-02-09T03:29:12.372Z,21.3
2017-02-09T03:29:32.784Z,21.23
2017-02-09T03:29:53.162Z,21.29
2017-02-09T03:30:13.535Z,21.36
2017-02-09T03:30:33.942Z,21.35
2017-02-09T03:30:54.341Z,21.38
2017-02-09T03:31:14.709Z,21.39
2017-02-09T03:31:35.097Z,21.3
2017-02-09T03:31:55.504Z,21.21
2017-02-09T03:32:15.889Z,21.38
2017-02-09T03:32:36.351Z,21.39
2017-02-09T03:32:56.775Z,21.39
2017-02-09T03:33:17.157Z,21.27
2017-02-09T03:33:37.564Z,21.27
2017-02-09T03:33:57.962Z,21.29
2017-02-09T03:34:18.368Z,21.33
2017-02-09T03:34:38.765Z,21.33
2017-02-09T03:34:59.175Z,21.23
2017-02-09T03:35:19.579Z,21.26
2017-02-09T03:35:39.940Z,21.19
2017-02-09T03:36:00.330Z,21.23
2017-02-09T03:36:20.733Z,21.27
2017-02-09T03:36:40.452Z,21.24
2017-02-09T03:37:00.865Z,21.3
2017-02-09T03:37:21.267Z,21.26
2017-02-09T03:37:41.039Z,21.27
2017-02-09T03:38:01.435Z,21.29
2017-02-09T03:38:21.163Z,21.26
2017-02-09T03:38:40.904Z,21.19
2017-02-09T03:39:01.266Z,21.19
2017-02-09T03:39:21.056Z,21.2
2017-02-09T03:39:41.473Z,21.19
2017-02-09T03:40:01.902Z,21.17
2017-02-09T03:40:22.301Z,21.2
2017-02-09T03:40:42.829Z,21.2
2017-02-09T03:41:03.273Z,21.14
2017-02-09T03:41:23.668Z,21.24
2017-02-09T03:41:44.068Z,21.23
2017-02-09T03:42:04.493Z,21.23
2017-02-09T03:42:24.907Z,21.24
2017-02-09T03:42:45.301Z,21.2
2017-02-09T03:43:05.685Z,21.19
2017-02-09T03:43:26.072Z,21.11
2017-02-09T03:43:45.846Z,21.12
2017-02-09T03:44:06.245Z,21.17
2017-02-09T03:44:26.648Z,21.12
2017-02-09T03:44:47.059Z,21.24
2017-02-09T03:45:07.492Z,21.24
2017-02-09T03:45:27.262Z,21.2
2017-02-09T03:45:47.670Z,21.17
2017-02-09T03:46:08.025Z,21.21
2017-02-09T03:46:27.793Z,21.24
2017-02-09T03:46:48.189Z,21.16
2017-02-09T03:47:08.573Z,21.17
2017-02-09T03:47:28.947Z,21.17
2017-02-09T03:47:49.338Z,21.08
2017-02-09T03:48:09.763Z,21.14
2017-02-09T03:48:30.157Z,21.19
2017-02-09T03:48:50.565Z,21.08
2017-02-09T03:49:10.991Z,21.2
2017-02-09T03:49:31.425Z,21.23
2017-02-09T03:49:51.813Z,21.24
2017-02-09T03:50:12.244Z,21.21
2017-02-09T03:50:33.037Z,21.17
2017-02-09T03:50:54.021Z,21.19
2017-02-09T03:51:14.494Z,21.24
2017-02-09T03:51:34.903Z,21.16
2017-02-09T03:51:55.315Z,21.21
2017-02-09T03:52:15.709Z,21.2
2017-02-09T03:52:35.455Z,21.27
2017-02-09T03:52:55.866Z,21.19
2017-02-09T03:53:16.236Z,21.12
2017-02-09T03:53:36.631Z,21.29
2017-02-09T03:53:57.053Z,21.29
2017-02-09T03:54:17.432Z,21.17
2017-02-09T03:54:37.831Z,21.3
2017-02-09T03:54:58.190Z,21.2
2017-02-09T03:55:18.614Z,21.17
2017-02-09T03:55:38.989Z,21.23
2017-02-09T03:55:59.342Z,21.21
2017-02-09T03:56:19.771Z,21.16
2017-02-09T03:56:40.184Z,21.19
2017-02-09T03:57:00.541Z,21.17
2017-02-09T03:57:20.969Z,21.23
2017-02-09T03:57:41.374Z,21.12
2017-02-09T03:58:01.788Z,21.16
2017-02-09T03:58:22.159Z,21.05
2017-02-09T03:58:42.555Z,21.2
2017-02-09T03:59:02.963Z,21.06
2017-02-09T03:59:23.380Z,21.08
2017-02-09T03:59:43.793Z,21.16
2017-02-09T04:00:04.167Z,21.09
2017-02-09T04:00:23.899Z,21.09
2017-02-09T04:00:44.299Z,21.23
2017-02-09T04:01:04.648Z,21.16
2017-02-09T04:01:24.396Z,21.17
2017-02-09T04:01:44.754Z,21.11
2017-02-09T04:02:04.591Z,21.09
2017-02-09T04:02:24.415Z,21.17
2017-02-09T04:02:44.781Z,21.12
2017-02-09T04:03:05.219Z,21.11
2017-02-09T04:03:24.940Z,21.16
2017-02-09T04:03:45.360Z,21.12
2017-02-09T04:04:05.799Z,21.16
2017-02-09T04:04:26.178Z,21.11
2017-02-09T04:04:46.600Z,21.05
2017-02-09T04:05:07.030Z,21.12
2017-02-09T04:05:27.418Z,21.05
2017-02-09T04:05:47.824Z,21.06
2017-02-09T04:06:07.600Z,21.08
2017-02-09T04:06:27.983Z,21.08
2017-02-09T04:06:47.748Z,21.06
2017-02-09T04:07:08.146Z,21.12
2017-02-09T04:07:28.529Z,21.12
2017-02-09T04:07:48.964Z,21.11
2017-02-09T04:08:09.348Z,21.11
2017-02-09T04:08:29.790Z,21.06
2017-02-09T04:08:50.168Z,21.17
2017-02-09T04:09:10.552Z,21.09
2017-02-09T04:09:30.956Z,21.09
2017-02-09T04:09:51.346Z,21.17
2017-02-09T04:10:11.778Z,21.06
2017-02-09T04:10:32.467Z,20.96
2017-02-09T04:10:52.897Z,20.99
2017-02-09T04:11:13.303Z,20.99
2017-02-09T04:11:33.671Z,21.06
2017-02-09T04:11:54.034Z,21.06
2017-02-09T04:12:14.425Z,20.99
2017-02-09T04:12:34.815Z,21.09
2017-02-09T04:12:55.222Z,20.98
2017-02-09T04:13:15.598Z,20.96
2017-02-09T04:13:35.338Z,21.01
2017-02-09T04:13:55.089Z,20.99
2017-02-09T04:14:15.516Z,21.08
2017-02-09T04:14:35.883Z,21.01
2017-02-09T04:14:55.670Z,21.04
2017-02-09T04:15:16.068Z,21.09
2017-02-09T04:15:36.553Z,21.11
2017-02-09T04:15:56.965Z,21.17
2017-02-09T04:16:17.372Z,21.14
2017-02-09T04:16:37.795Z,21.17
2017-02-09T04:16:58.217Z,21.14
2017-02-09T04:17:18.648Z,21.11
2017-02-09T04:17:39.035Z,21.05
2017-02-09T04:17:58.770Z,21.17
2017-02-09T04:18:19.150Z,21.16
2017-02-09T04:18:39.529Z,21.19
2017-02-09T04:18:59.941Z,21.08
2017-02-09T04:19:20.355Z,21.08
2017-02-09T04:19:40.759Z,20.99
2017-02-09T04:20:01.192Z,20.99
2017-02-09T04:20:20.317Z,21.01
2017-02-09T04:20:40.855Z,21.01
2017-02-09T04:21:01.219Z,21.02